createdAt,value
2022-10-23T00:00:56.724Z,100586.88
2022-10-23T00:03:43.466Z,100585.97
2022-10-23T00:06:31.463Z,100591.19
2022-10-23T00:09:18.204Z,100593.78
2022-10-23T00:12:05.639Z,100599.00
2022-10-23T00:14:52.385Z,100593.72
2022-10-23T00:17:39.209Z,100606.81
2022-10-23T00:20:27.571Z,100586.16
2022-10-23T00:23:14.341Z,100598.81
2022-10-23T00:26:01.085Z,100604.88
2022-10-23T00:28:47.853Z,100605.75
2022-10-23T00:31:35.003Z,100613.69
2022-10-23T00:34:22.080Z,100605.69
2022-10-23T00:37:08.846Z,100609.22
2022-10-23T00:39:55.604Z,100605.63
2022-10-23T00:42:44.137Z,100612.63
2022-10-23T00:45:39.712Z,100578.41
2022-10-23T00:48:06.475Z,100558.00
2022-10-23T00:50:33.482Z,100600.84
2022-10-23T00:53:03.920Z,100628.44
2022-10-23T00:55:32.577Z,100636.34
2022-10-23T00:57:59.710Z,100630.19
2022-10-23T01:00:40.335Z,100634.47
2022-10-23T01:03:07.295Z,100624.94
2022-10-23T01:05:50.170Z,100636.28
2022-10-23T01:08:29.721Z,100635.47
2022-10-23T01:11:10.020Z,100643.16
2022-10-23T01:13:49.540Z,100632.53
2022-10-23T01:16:31.772Z,100639.50
2022-10-23T01:19:07.635Z,100642.09
2022-10-23T01:21:43.500Z,100636.81
2022-10-23T01:24:26.918Z,100641.19
2022-10-23T01:27:14.791Z,100644.69
2022-10-23T01:29:46.994Z,100650.84
2022-10-23T01:32:19.971Z,100624.13
2022-10-23T01:35:00.763Z,100656.94
2022-10-23T01:37:34.452Z,100633.63
2022-10-23T01:40:10.135Z,100656.88
2022-10-23T01:42:43.923Z,100636.09
2022-10-23T01:45:21.761Z,100646.19
2022-10-23T01:47:50.756Z,100651.41
2022-10-23T01:50:19.828Z,100646.06
2022-10-23T01:52:49.178Z,100657.41
2022-10-23T01:55:17.715Z,100653.06
2022-10-23T01:57:46.219Z,100639.97
2022-10-23T02:00:15.988Z,100641.03
2022-10-23T02:02:53.344Z,100653.81
2022-10-23T02:05:28.769Z,100660.81
2022-10-23T02:07:58.010Z,100660.81
2022-10-23T02:10:34.184Z,100658.09
2022-10-23T02:13:33.237Z,100650.25
2022-10-23T02:16:23.712Z,100656.28
2022-10-23T02:18:59.108Z,100656.56
2022-10-23T02:21:53.585Z,100664.22
2022-10-23T02:24:28.493Z,100671.19
2022-10-23T02:27:02.821Z,100665.84
2022-10-23T02:29:35.303Z,100664.16
2022-10-23T02:32:02.474Z,100660.63
2022-10-23T02:34:29.386Z,100655.53
2022-10-23T02:36:56.657Z,100661.50
2022-10-23T02:39:27.674Z,100657.09
2022-10-23T02:42:10.705Z,100662.34
2022-10-23T02:44:43.832Z,100668.50
2022-10-23T02:47:25.157Z,100672.88
2022-10-23T02:50:02.616Z,100680.81
2022-10-23T02:52:38.744Z,100673.72
2022-10-23T02:55:05.734Z,100677.25
2022-10-23T02:57:54.264Z,100684.25
2022-10-23T03:00:22.942Z,100684.25
2022-10-23T03:03:14.799Z,100686.81
2022-10-23T03:05:44.925Z,100650.66
2022-10-23T03:08:14.968Z,100678.91
2022-10-23T03:10:42.580Z,100666.84
2022-10-23T03:13:10.963Z,100624.59
2022-10-23T03:15:42.354Z,100687.66
2022-10-23T03:18:12.650Z,100682.38
2022-10-23T03:20:41.147Z,100689.38
2022-10-23T03:23:11.892Z,100684.97
2022-10-23T03:25:38.728Z,100679.69
2022-10-23T03:28:05.860Z,100691.97
2022-10-23T03:30:34.885Z,100683.31
2022-10-23T03:33:01.739Z,100687.56
2022-10-23T03:35:28.515Z,100677.09
2022-10-23T03:37:55.437Z,100694.63
2022-10-23T03:40:24.348Z,100677.19
2022-10-23T03:42:51.195Z,100690.19
2022-10-23T03:45:19.496Z,100683.13
2022-10-23T03:47:48.648Z,100690.19
2022-10-23T03:50:15.594Z,100700.78
2022-10-23T03:52:42.783Z,100695.59
2022-10-23T03:55:12.503Z,100693.91
2022-10-23T03:57:39.310Z,100692.19
2022-10-23T04:00:07.136Z,100688.75
2022-10-23T04:02:43.708Z,100687.00
2022-10-23T04:05:11.529Z,100688.75
2022-10-23T04:07:40.380Z,100681.91
2022-10-23T04:10:07.621Z,100689.03
2022-10-23T04:12:35.443Z,100610.66
2022-10-23T04:15:02.257Z,100673.69
2022-10-23T04:17:29.105Z,100696.00
2022-10-23T04:19:56.189Z,100701.34
2022-10-23T04:22:25.958Z,100696.97
2022-10-23T04:24:54.693Z,100702.31
2022-10-23T04:27:21.439Z,100707.66
2022-10-23T04:29:49.386Z,100708.59
2022-10-23T04:32:16.371Z,100708.59
2022-10-23T04:34:44.295Z,100705.06
2022-10-23T04:37:11.036Z,100674.22
2022-10-23T04:39:38.391Z,100709.63
2022-10-23T04:42:05.220Z,100717.56
2022-10-23T04:44:31.978Z,100720.25
2022-10-23T04:46:58.847Z,100715.16
2022-10-23T04:49:25.713Z,100720.44
2022-10-23T04:52:17.740Z,100729.31
2022-10-23T04:55:05.153Z,100729.38
2022-10-23T04:57:41.379Z,100735.66
2022-10-23T05:00:12.515Z,100733.94
2022-10-23T05:02:53.976Z,100736.72
2022-10-23T05:05:21.844Z,100716.09
2022-10-23T05:08:08.019Z,100734.19
2022-10-23T05:10:49.744Z,100731.78
2022-10-23T05:13:20.320Z,100737.72
2022-10-23T05:15:48.594Z,100751.81
2022-10-23T05:18:30.901Z,100751.81
2022-10-23T05:21:04.257Z,100754.50
2022-10-23T05:23:34.678Z,100741.56
2022-10-23T05:26:03.544Z,100758.16
2022-10-23T05:28:31.657Z,100744.44
2022-10-23T05:31:01.049Z,100742.47
2022-10-23T05:33:30.718Z,100754.91
2022-10-23T05:35:58.787Z,100706.56
2022-10-23T05:38:27.768Z,100750.63
2022-10-23T05:40:55.204Z,100751.56
2022-10-23T05:43:23.157Z,100761.31
2022-10-23T05:45:55.655Z,100754.59
2022-10-23T05:48:33.620Z,100758.78
2022-10-23T05:51:25.084Z,100758.03
2022-10-23T05:53:59.777Z,100759.91
2022-10-23T05:56:32.288Z,100756.41
2022-10-23T05:59:08.305Z,100752.09
2022-10-23T06:01:49.047Z,100756.63
2022-10-23T06:04:21.752Z,100748.81
2022-10-23T06:07:04.334Z,100756.78
2022-10-23T06:09:31.582Z,100754.19
2022-10-23T06:11:58.833Z,100756.03
2022-10-23T06:14:25.636Z,100760.47
2022-10-23T06:16:53.767Z,100743.31
2022-10-23T06:19:21.211Z,100757.94
2022-10-23T06:21:52.185Z,100765.03
2022-10-23T06:24:21.388Z,100759.00
2022-10-23T06:26:59.592Z,100754.03
2022-10-23T06:29:47.243Z,100767.00
2022-10-23T06:32:14.111Z,100770.53
2022-10-23T06:34:46.275Z,100777.63
2022-10-23T06:37:13.080Z,100777.63
2022-10-23T06:39:51.382Z,100777.69
2022-10-23T06:42:33.738Z,100785.66
2022-10-23T06:45:23.677Z,100780.38
2022-10-23T06:47:53.395Z,100773.44
2022-10-23T06:50:49.063Z,100782.19
2022-10-23T06:53:20.299Z,100788.41
2022-10-23T06:55:55.305Z,100781.41
2022-10-23T06:58:22.804Z,100785.81
2022-10-23T07:01:22.089Z,100793.78
2022-10-23T07:03:49.017Z,100786.03
2022-10-23T07:06:19.811Z,100794.72
2022-10-23T07:08:46.713Z,100796.44
2022-10-23T07:11:48.824Z,100786.91
2022-10-23T07:14:15.699Z,100804.34
2022-10-23T07:16:42.888Z,100806.06
2022-10-23T07:19:30.322Z,100806.06
2022-10-23T07:22:20.090Z,100810.44
2022-10-23T07:25:29.293Z,100819.25
2022-10-23T07:28:20.028Z,100818.38
2022-10-23T07:31:17.288Z,100818.38
2022-10-23T07:34:24.916Z,100814.75
2022-10-23T07:37:29.484Z,100817.34
2022-10-23T07:40:18.072Z,100814.69
2022-10-23T07:43:05.229Z,100759.53
2022-10-23T07:45:52.005Z,100816.44
2022-10-23T07:48:50.992Z,100823.44
2022-10-23T07:51:37.919Z,100820.84
2022-10-23T07:54:24.832Z,100830.34
2022-10-23T07:57:31.802Z,100846.19
2022-10-23T08:00:30.032Z,100845.28
2022-10-23T08:03:27.571Z,100853.22
2022-10-23T08:06:15.270Z,100862.84
2022-10-23T08:09:06.189Z,100870.72
2022-10-23T08:11:58.036Z,100866.25
2022-10-23T08:14:47.760Z,100876.81
2022-10-23T08:17:34.685Z,100882.09
2022-10-23T08:20:41.221Z,100881.22
2022-10-23T08:23:30.140Z,100880.31
2022-10-23T08:26:18.955Z,100889.97
2022-10-23T08:29:05.651Z,100892.56
2022-10-23T08:31:52.444Z,100896.97
2022-10-23T08:34:45.244Z,100905.72
2022-10-23T08:37:32.030Z,100901.28
2022-10-23T08:40:18.925Z,100904.75
2022-10-23T08:43:34.443Z,100903.81
2022-10-23T08:46:39.400Z,100906.47
2022-10-23T08:50:10.552Z,100910.84
2022-10-23T08:53:29.619Z,100915.22
2022-10-23T08:56:32.125Z,100928.38
2022-10-23T08:59:52.428Z,100918.78
2022-10-23T09:02:47.933Z,100930.97
2022-10-23T09:05:56.063Z,100926.50
2022-10-23T09:08:51.872Z,100937.84
2022-10-23T09:12:23.275Z,100939.56
2022-10-23T09:15:34.301Z,100930.66
2022-10-23T09:18:31.574Z,100937.63
2022-10-23T09:21:18.511Z,100942.81
2022-10-23T09:24:05.214Z,100943.63
2022-10-23T09:26:52.050Z,100947.03
2022-10-23T09:29:41.448Z,100946.06
2022-10-23T09:32:28.174Z,100958.28
2022-10-23T09:35:15.396Z,100957.25
2022-10-23T09:38:06.543Z,100958.84
2022-10-23T09:40:58.987Z,100959.56
2022-10-23T09:43:45.825Z,100949.81
2022-10-23T09:46:32.768Z,100882.31
2022-10-23T09:49:19.479Z,100952.09
2022-10-23T09:52:32.298Z,100952.88
2022-10-23T09:55:21.421Z,100958.00
2022-10-23T09:58:08.139Z,100959.72
2022-10-23T10:00:55.488Z,100968.31
2022-10-23T10:03:58.238Z,100972.63
2022-10-23T10:06:51.860Z,100967.22
2022-10-23T10:09:38.567Z,100967.16
2022-10-23T10:12:25.312Z,100967.09
2022-10-23T10:15:53.589Z,100973.19
2022-10-23T10:19:00.152Z,100953.69
2022-10-23T10:22:28.378Z,100959.88
2022-10-23T10:25:23.898Z,100969.41
2022-10-23T10:28:22.302Z,100971.94
2022-10-23T10:31:39.480Z,100972.75
2022-10-23T10:34:30.943Z,100967.34
2022-10-23T10:37:29.906Z,100966.31
2022-10-23T10:40:44.696Z,100968.00
2022-10-23T10:43:55.928Z,100971.38
2022-10-23T10:46:48.919Z,100976.50
2022-10-23T10:49:55.737Z,100976.38
2022-10-23T10:53:16.948Z,100971.75
2022-10-23T10:59:07.853Z,100970.56
2022-10-23T11:02:03.144Z,100971.25
2022-10-23T11:05:00.924Z,100970.22
2022-10-23T11:07:57.168Z,100973.59
2022-10-23T11:10:43.908Z,100977.88
2022-10-23T11:13:57.080Z,100982.13
2022-10-23T11:16:54.944Z,100989.06
2022-10-23T11:20:31.026Z,100980.13
2022-10-23T11:23:42.243Z,100936.09
2022-10-23T11:27:00.304Z,100929.81
2022-10-23T11:30:18.071Z,100984.00
2022-10-23T11:33:27.848Z,100985.66
2022-10-23T11:36:26.502Z,100981.09
2022-10-23T11:39:13.261Z,100991.59
2022-10-23T11:42:15.240Z,100998.53
2022-10-23T11:45:09.931Z,100995.75
2022-10-23T11:48:02.908Z,101003.59
2022-10-23T11:51:09.164Z,101000.88
2022-10-23T11:53:55.836Z,100996.41
2022-10-23T11:56:26.580Z,100998.94
2022-10-23T11:59:18.363Z,100982.53
2022-10-23T12:02:06.195Z,101002.28
2022-10-23T12:05:10.595Z,101002.25
2022-10-23T12:08:00.426Z,101008.34
2022-10-23T12:10:51.495Z,101000.47
2022-10-23T12:13:56.652Z,101017.06
2022-10-23T12:16:54.656Z,101010.88
2022-10-23T12:19:43.677Z,101006.56
2022-10-23T12:22:31.605Z,101026.59
2022-10-23T12:25:35.568Z,101024.00
2022-10-23T12:28:33.037Z,100990.41
2022-10-23T12:31:29.099Z,101034.44
2022-10-23T12:34:36.040Z,101041.47
2022-10-23T12:37:28.693Z,101039.66
2022-10-23T12:40:16.529Z,101044.91
2022-10-23T12:43:11.721Z,101035.19
2022-10-23T12:46:00.788Z,101026.53
2022-10-23T12:48:47.568Z,101041.34
2022-10-23T12:51:43.231Z,101043.13
2022-10-23T12:54:38.522Z,101050.16
2022-10-23T12:58:01.626Z,101047.50
2022-10-23T13:00:48.330Z,101042.25
2022-10-23T13:03:35.039Z,101051.84
2022-10-23T13:06:23.500Z,101055.34
2022-10-23T13:09:10.660Z,101065.03
2022-10-23T13:12:10.463Z,101056.16
2022-10-23T13:15:01.295Z,101050.84
2022-10-23T13:18:05.185Z,101025.06
2022-10-23T13:20:55.058Z,101067.63
2022-10-23T13:23:52.431Z,101057.09
2022-10-23T13:27:07.691Z,101053.44
2022-10-23T13:29:54.612Z,101062.25
2022-10-23T13:32:46.993Z,101056.09
2022-10-23T13:35:42.012Z,101056.16
2022-10-23T13:38:29.861Z,100982.25
2022-10-23T13:41:19.084Z,101057.88
2022-10-23T13:44:07.756Z,101066.88
2022-10-23T13:46:54.474Z,101070.41
2022-10-23T13:49:41.177Z,101067.69
2022-10-23T13:52:32.698Z,101055.56
2022-10-23T13:55:19.411Z,101075.75
2022-10-23T13:58:06.096Z,101080.31
2022-10-23T14:00:52.828Z,101086.53
2022-10-23T14:03:39.613Z,101091.84
2022-10-23T14:06:26.621Z,101094.50
2022-10-23T14:09:13.399Z,101094.56
2022-10-23T14:12:00.615Z,101096.34
2022-10-23T14:14:47.405Z,101089.38
2022-10-23T14:17:34.112Z,101088.56
2022-10-23T14:20:24.434Z,101088.63
2022-10-23T14:23:13.875Z,101099.28
2022-10-23T14:26:00.741Z,101097.63
2022-10-23T14:28:47.577Z,101101.09
2022-10-23T14:31:37.472Z,101099.44
2022-10-23T14:34:24.165Z,101099.50
2022-10-23T14:37:10.879Z,101106.63
2022-10-23T14:39:57.603Z,101091.72
2022-10-23T14:42:44.652Z,101102.44
2022-10-23T14:45:31.694Z,101107.00
2022-10-23T14:48:18.476Z,101093.03
2022-10-23T14:51:08.361Z,101108.09
2022-10-23T14:53:56.444Z,101117.94
2022-10-23T14:56:45.969Z,101105.91
2022-10-23T14:59:32.771Z,101124.38
2022-10-23T15:02:19.547Z,101120.97
2022-10-23T15:05:06.324Z,101122.81
2022-10-23T15:07:53.019Z,101124.75
2022-10-23T15:10:39.744Z,101120.44
2022-10-23T15:13:26.649Z,101121.47
2022-10-23T15:16:28.263Z,101131.28
2022-10-23T15:19:18.207Z,101131.41
2022-10-23T15:22:06.956Z,101125.59
2022-10-23T15:24:53.709Z,101137.78
2022-10-23T15:27:40.635Z,101137.94
2022-10-23T15:30:27.969Z,101141.56
2022-10-23T15:33:19.122Z,101150.53
2022-10-23T15:36:06.856Z,101150.63
2022-10-23T15:38:53.603Z,101108.41
2022-10-23T15:41:39.600Z,101079.16
2022-10-23T15:44:07.524Z,101153.66
2022-10-23T15:46:34.818Z,101153.84
2022-10-23T15:49:01.898Z,101162.72
2022-10-23T15:51:28.712Z,101160.41
2022-10-23T15:53:57.114Z,101175.34
2022-10-23T15:56:24.762Z,101158.97
2022-10-23T15:58:51.767Z,101178.19
2022-10-23T16:01:18.872Z,101185.38
2022-10-23T16:03:46.067Z,101137.91
2022-10-23T16:06:16.422Z,101189.13
2022-10-23T16:08:46.170Z,101190.13
2022-10-23T16:11:30.876Z,101190.25
2022-10-23T16:13:59.144Z,101195.69
2022-10-23T16:16:27.745Z,101211.69
2022-10-23T16:18:55.013Z,101213.56
2022-10-23T16:21:25.842Z,101208.38
2022-10-23T16:23:54.103Z,101202.28
2022-10-23T16:26:22.369Z,101213.88
2022-10-23T16:28:53.873Z,101214.94
2022-10-23T16:31:21.996Z,101190.81
2022-10-23T16:33:49.473Z,101219.53
2022-10-23T16:36:17.505Z,101202.28
2022-10-23T16:39:08.659Z,101221.56
2022-10-23T16:41:54.081Z,101224.25
2022-10-23T16:44:23.304Z,101230.56
2022-10-23T16:46:58.112Z,101228.94
2022-10-23T16:49:25.094Z,101231.66
2022-10-23T16:51:51.863Z,101197.16
2022-10-23T16:54:38.609Z,101233.69
2022-10-23T16:57:25.390Z,101148.22
2022-10-23T17:00:12.072Z,101235.75
2022-10-23T17:02:58.784Z,101228.00
2022-10-23T17:05:45.477Z,101200.38
2022-10-23T17:08:32.189Z,101232.78
2022-10-23T17:11:28.899Z,101242.50
2022-10-23T17:14:17.320Z,101252.31
2022-10-23T17:16:47.857Z,101247.22
2022-10-23T17:19:39.798Z,101253.47
2022-10-23T17:22:24.343Z,101245.72
2022-10-23T17:25:11.050Z,101248.47
2022-10-23T17:27:57.749Z,101264.41
2022-10-23T17:30:44.500Z,101262.81
2022-10-23T17:33:31.230Z,101258.69
2022-10-23T17:36:22.192Z,101200.78
2022-10-23T17:39:09.513Z,101273.84
2022-10-23T17:41:57.184Z,101272.25
2022-10-23T17:44:43.978Z,101272.34
2022-10-23T17:47:30.679Z,101278.56
2022-10-23T17:50:17.362Z,101265.53
2022-10-23T17:53:04.057Z,101276.19
2022-10-23T17:55:51.107Z,101277.25
2022-10-23T17:58:37.807Z,101290.47
2022-10-23T18:01:27.022Z,101294.97
2022-10-23T18:04:15.212Z,101307.31
2022-10-23T18:07:05.141Z,101237.13
2022-10-23T18:09:51.832Z,101304.91
2022-10-23T18:12:38.790Z,101309.41
2022-10-23T18:15:26.129Z,101320.91
2022-10-23T18:18:12.817Z,101322.75
2022-10-23T18:21:00.265Z,101330.75
2022-10-23T18:23:48.936Z,101327.34
2022-10-23T18:26:47.190Z,101335.31
2022-10-23T18:29:35.643Z,101332.78
2022-10-23T18:32:22.392Z,101334.59
2022-10-23T18:35:09.294Z,101337.41
2022-10-23T18:37:56.015Z,101347.03
2022-10-23T18:40:42.732Z,101359.41
2022-10-23T18:43:43.285Z,101363.91
2022-10-23T18:46:35.168Z,101368.34
2022-10-23T18:49:22.455Z,101367.53
2022-10-23T18:52:10.023Z,101370.31
2022-10-23T18:54:56.789Z,101377.38
2022-10-23T18:57:44.196Z,101380.06
2022-10-23T19:00:31.991Z,101358.50
2022-10-23T19:03:18.703Z,101384.59
2022-10-23T19:06:06.754Z,101395.19
2022-10-23T19:08:57.095Z,101384.72
2022-10-23T19:11:45.712Z,101392.72
2022-10-23T19:14:32.909Z,101391.88
2022-10-23T19:17:33.710Z,101401.56
2022-10-23T19:20:29.489Z,101401.63
2022-10-23T19:23:17.128Z,101402.59
2022-10-23T19:26:05.075Z,101414.06
2022-10-23T19:31:45.792Z,101429.94
2022-10-23T19:34:32.510Z,101416.94
2022-10-23T19:37:19.268Z,101423.06
2022-10-23T19:40:05.984Z,101431.00
2022-10-23T19:42:57.587Z,101439.81
2022-10-23T19:45:44.292Z,101427.69
2022-10-23T19:48:31.096Z,101439.03
2022-10-23T19:51:17.923Z,101444.31
2022-10-23T19:54:04.636Z,101435.59
2022-10-23T19:56:51.476Z,101429.50
2022-10-23T19:59:38.592Z,101440.06
2022-10-23T20:02:25.578Z,101445.38
2022-10-23T20:05:12.593Z,101446.28
2022-10-23T20:07:59.376Z,101442.81
2022-10-23T20:10:46.163Z,101440.28
2022-10-23T20:13:32.911Z,101450.78
2022-10-23T20:16:19.614Z,101451.72
2022-10-23T20:19:07.282Z,101455.28
2022-10-23T20:21:59.243Z,101458.84
2022-10-23T20:24:46.424Z,101456.25
2022-10-23T20:30:24.133Z,101452.81
2022-10-23T20:33:10.867Z,101456.38
2022-10-23T20:36:01.889Z,101463.41
2022-10-23T20:38:48.588Z,101459.06
2022-10-23T20:41:35.325Z,101464.34
2022-10-23T20:44:22.241Z,101471.34
2022-10-23T20:47:09.617Z,101477.53
2022-10-23T20:49:56.405Z,101475.78
2022-10-23T20:52:43.142Z,101474.97
2022-10-23T20:55:30.061Z,101482.91
2022-10-23T20:58:16.828Z,101478.53
2022-10-23T21:01:03.629Z,101486.44
2022-10-23T21:03:50.444Z,101449.84
2022-10-23T21:06:57.525Z,101487.34
2022-10-23T21:09:45.413Z,101459.50
2022-10-23T21:12:32.403Z,101485.66
2022-10-23T21:15:19.144Z,101487.47
2022-10-23T21:18:14.567Z,101497.97
2022-10-23T21:21:12.768Z,101485.78
2022-10-23T21:23:59.619Z,101505.88
2022-10-23T21:26:48.331Z,101509.34
2022-10-23T21:29:35.381Z,101507.66
2022-10-23T21:32:22.154Z,101519.03
2022-10-23T21:35:08.867Z,101522.53
2022-10-23T21:37:55.586Z,101527.81
2022-10-23T21:40:42.861Z,101514.75
2022-10-23T21:43:29.580Z,101535.72
2022-10-23T21:46:16.269Z,101537.50
2022-10-23T21:49:03.396Z,101538.38
2022-10-23T21:51:56.679Z,101547.16
2022-10-23T21:54:43.474Z,101550.69
2022-10-23T21:57:34.433Z,101548.91
2022-10-23T22:00:21.152Z,101568.19
2022-10-23T22:03:08.235Z,101496.72
2022-10-23T22:05:54.973Z,101571.69
2022-10-23T22:08:41.699Z,101571.72
2022-10-23T22:11:28.527Z,101577.84
2022-10-23T22:14:15.677Z,101584.84
2022-10-23T22:17:02.420Z,101567.41
2022-10-23T22:19:49.179Z,101570.03
2022-10-23T22:22:35.876Z,101574.41
2022-10-23T22:25:22.635Z,101541.31
2022-10-23T22:28:09.359Z,101584.06
2022-10-23T22:30:56.838Z,101597.19
2022-10-23T22:33:43.548Z,101588.44
2022-10-23T22:36:30.353Z,101584.06
2022-10-23T22:39:17.116Z,101587.59
2022-10-23T22:42:03.851Z,101598.06
2022-10-23T22:44:50.569Z,101603.31
2022-10-23T22:47:37.221Z,101605.09
2022-10-23T22:50:24.253Z,101580.66
2022-10-23T22:53:11.861Z,101614.69
2022-10-23T22:56:02.628Z,101592.00
2022-10-23T22:58:49.340Z,101619.06
2022-10-23T23:01:41.737Z,101618.19
2022-10-23T23:04:43.806Z,101615.56
2022-10-23T23:07:32.536Z,101618.19
2022-10-23T23:10:19.226Z,101613.84
2022-10-23T23:13:05.925Z,101619.09
2022-10-23T23:15:53.091Z,101476.06
2022-10-23T23:18:40.138Z,101588.56
2022-10-23T23:21:26.842Z,101615.59
2022-10-23T23:24:14.151Z,101602.53
2022-10-23T23:27:01.018Z,101618.22
2022-10-23T23:29:47.732Z,101620.84
2022-10-23T23:32:34.472Z,101622.63
2022-10-23T23:35:21.906Z,101574.63
2022-10-23T23:38:08.662Z,101608.63
2022-10-23T23:40:55.532Z,101617.38
2022-10-23T23:48:50.464Z,101622.66
2022-10-23T23:51:40.122Z,101621.78
2022-10-23T23:54:26.856Z,101615.66
2022-10-23T23:57:16.592Z,101623.50
